sensor_id;sensor_type;location;lat;lon;timestamp;pressure;altitude;pressure_sealevel;temperature;humidity
30897;BME280;64229;52.246;21.054;2023-01-15T00:01:23;99975.72;;;4.97;78.69
30897;BME280;64229;52.246;21.054;2023-01-15T00:03:50;99971.34;;;5.02;78.34
30897;BME280;64229;52.246;21.054;2023-01-15T00:06:16;99958.72;;;4.92;78.89
30897;BME280;64229;52.246;21.054;2023-01-15T00:08:42;99951.06;;;4.79;79.13
30897;BME280;64229;52.246;21.054;2023-01-15T00:11:07;99944.28;;;4.72;80.03
30897;BME280;64229;52.246;21.054;2023-01-15T00:13:33;99938.84;;;4.78;79.88
30897;BME280;64229;52.246;21.054;2023-01-15T00:16:07;99931.06;;;4.72;79.71
30897;BME280;64229;52.246;21.054;2023-01-15T00:18:33;99947.03;;;4.77;79.73
30897;BME280;64229;52.246;21.054;2023-01-15T00:21:02;99931.50;;;4.80;80.15
30897;BME280;64229;52.246;21.054;2023-01-15T00:23:28;99919.47;;;4.73;79.98
30897;BME280;64229;52.246;21.054;2023-01-15T00:26:14;99905.88;;;4.41;81.50
30897;BME280;64229;52.246;21.054;2023-01-15T00:29:00;99899.09;;;4.33;82.12
30897;BME280;64229;52.246;21.054;2023-01-15T00:31:26;99889.00;;;4.30;82.55
30897;BME280;64229;52.246;21.054;2023-01-15T00:33:51;99895.69;;;4.21;83.10
30897;BME280;64229;52.246;21.054;2023-01-15T00:36:17;99891.88;;;4.28;83.20
30897;BME280;64229;52.246;21.054;2023-01-15T00:38:42;99891.75;;;4.35;82.67
30897;BME280;64229;52.246;21.054;2023-01-15T00:41:08;99890.25;;;4.39;82.44
30897;BME280;64229;52.246;21.054;2023-01-15T00:43:33;99902.44;;;4.40;82.39
30897;BME280;64229;52.246;21.054;2023-01-15T00:45:58;99871.16;;;4.49;81.73
30897;BME280;64229;52.246;21.054;2023-01-15T00:48:24;99881.28;;;4.40;81.59
30897;BME280;64229;52.246;21.054;2023-01-15T00:50:49;99872.34;;;4.29;82.06
30897;BME280;64229;52.246;21.054;2023-01-15T00:53:14;99872.44;;;4.34;81.97
30897;BME280;64229;52.246;21.054;2023-01-15T00:55:40;99868.75;;;4.35;81.66
30897;BME280;64229;52.246;21.054;2023-01-15T00:58:06;99873.13;;;4.42;82.11
30897;BME280;64229;52.246;21.054;2023-01-15T01:00:31;99862.16;;;4.61;80.12
30897;BME280;64229;52.246;21.054;2023-01-15T01:02:57;99853.91;;;4.58;79.81
30897;BME280;64229;52.246;21.054;2023-01-15T01:05:22;99855.94;;;4.56;80.20
30897;BME280;64229;52.246;21.054;2023-01-15T01:07:47;99860.53;;;4.60;79.98
30897;BME280;64229;52.246;21.054;2023-01-15T01:10:14;99856.06;;;4.61;79.81
30897;BME280;64229;52.246;21.054;2023-01-15T01:12:39;99849.59;;;4.69;79.49
30897;BME280;64229;52.246;21.054;2023-01-15T01:15:05;99836.47;;;4.74;78.44
30897;BME280;64229;52.246;21.054;2023-01-15T01:17:31;99839.16;;;4.62;78.94
30897;BME280;64229;52.246;21.054;2023-01-15T01:19:56;99843.94;;;4.48;79.53
30897;BME280;64229;52.246;21.054;2023-01-15T01:22:21;99840.38;;;4.43;80.36
30897;BME280;64229;52.246;21.054;2023-01-15T01:24:47;99830.97;;;4.35;80.69
30897;BME280;64229;52.246;21.054;2023-01-15T01:27:12;99833.06;;;4.33;80.11
30897;BME280;64229;52.246;21.054;2023-01-15T01:29:37;99846.19;;;4.28;80.75
30897;BME280;64229;52.246;21.054;2023-01-15T01:32:03;99843.78;;;4.26;80.74
30897;BME280;64229;52.246;21.054;2023-01-15T01:34:29;99831.78;;;4.35;80.63
30897;BME280;64229;52.246;21.054;2023-01-15T01:36:54;99825.16;;;4.21;80.39
30897;BME280;64229;52.246;21.054;2023-01-15T01:39:19;99830.75;;;4.37;80.54
30897;BME280;64229;52.246;21.054;2023-01-15T01:41:45;99812.72;;;4.33;79.93
30897;BME280;64229;52.246;21.054;2023-01-15T01:47:01;99825.28;;;4.26;79.89
30897;BME280;64229;52.246;21.054;2023-01-15T01:49:29;99814.72;;;4.26;80.19
30897;BME280;64229;52.246;21.054;2023-01-15T01:52:07;99798.84;;;4.26;79.69
30897;BME280;64229;52.246;21.054;2023-01-15T01:54:35;99798.88;;;4.15;79.80
30897;BME280;64229;52.246;21.054;2023-01-15T01:57:03;99790.94;;;4.26;79.58
30897;BME280;64229;52.246;21.054;2023-01-15T01:59:30;99767.09;;;4.10;79.73
30897;BME280;64229;52.246;21.054;2023-01-15T02:01:55;99775.50;;;4.06;80.59
30897;BME280;64229;52.246;21.054;2023-01-15T02:04:22;99767.59;;;3.95;81.01
30897;BME280;64229;52.246;21.054;2023-01-15T02:06:50;99757.63;;;3.85;81.83
30897;BME280;64229;52.246;21.054;2023-01-15T02:09:16;99760.28;;;3.85;81.62
30897;BME280;64229;52.246;21.054;2023-01-15T02:11:41;99759.25;;;3.86;81.35
30897;BME280;64229;52.246;21.054;2023-01-15T02:14:15;99738.72;;;3.76;81.78
30897;BME280;64229;52.246;21.054;2023-01-15T02:17:09;99755.72;;;3.69;82.36
30897;BME280;64229;52.246;21.054;2023-01-15T02:23:01;99753.97;;;3.86;82.06
30897;BME280;64229;52.246;21.054;2023-01-15T02:28:36;99764.16;;;3.83;82.44
30897;BME280;64229;52.246;21.054;2023-01-15T02:33:38;99751.81;;;3.60;82.40
30897;BME280;64229;52.246;21.054;2023-01-15T02:36:08;99760.91;;;3.64;82.57
30897;BME280;64229;52.246;21.054;2023-01-15T02:38:45;99743.47;;;3.63;82.84
30897;BME280;64229;52.246;21.054;2023-01-15T02:41:13;99760.53;;;3.60;82.87
30897;BME280;64229;52.246;21.054;2023-01-15T02:43:49;99742.41;;;3.64;82.81
30897;BME280;64229;52.246;21.054;2023-01-15T02:46:17;99751.59;;;3.61;82.89
30897;BME280;64229;52.246;21.054;2023-01-15T02:48:47;99743.66;;;3.73;82.51
30897;BME280;64229;52.246;21.054;2023-01-15T02:51:17;99745.13;;;3.81;81.61
30897;BME280;64229;52.246;21.054;2023-01-15T02:53:47;99733.56;;;3.70;81.84
30897;BME280;64229;52.246;21.054;2023-01-15T02:56:17;99721.06;;;3.65;81.66
30897;BME280;64229;52.246;21.054;2023-01-15T02:58:44;99706.16;;;3.59;81.85
30897;BME280;64229;52.246;21.054;2023-01-15T03:01:13;99694.22;;;3.68;82.04
30897;BME280;64229;52.246;21.054;2023-01-15T03:06:26;99697.56;;;3.64;81.52
30897;BME280;64229;52.246;21.054;2023-01-15T03:08:54;99695.81;;;3.69;81.47
30897;BME280;64229;52.246;21.054;2023-01-15T03:11:19;99684.56;;;3.74;81.06
30897;BME280;64229;52.246;21.054;2023-01-15T03:13:48;99671.50;;;3.67;80.88
30897;BME280;64229;52.246;21.054;2023-01-15T03:16:38;99674.69;;;3.69;81.35
30897;BME280;64229;52.246;21.054;2023-01-15T03:19:12;99672.53;;;3.66;81.30
30897;BME280;64229;52.246;21.054;2023-01-15T03:24:42;99650.63;;;3.66;81.47
30897;BME280;64229;52.246;21.054;2023-01-15T03:27:09;99670.13;;;3.65;81.00
30897;BME280;64229;52.246;21.054;2023-01-15T03:29:41;99683.31;;;3.65;81.22
30897;BME280;64229;52.246;21.054;2023-01-15T03:32:08;99677.59;;;3.56;81.49
30897;BME280;64229;52.246;21.054;2023-01-15T03:34:41;99665.88;;;3.64;80.80
30897;BME280;64229;52.246;21.054;2023-01-15T03:37:07;99665.53;;;3.60;81.20
30897;BME280;64229;52.246;21.054;2023-01-15T03:39:33;99645.38;;;3.54;81.13
30897;BME280;64229;52.246;21.054;2023-01-15T03:47:26;99637.66;;;3.64;80.95
30897;BME280;64229;52.246;21.054;2023-01-15T03:52:43;99635.41;;;3.85;80.38
30897;BME280;64229;52.246;21.054;2023-01-15T03:58:05;99628.28;;;3.85;79.65
30897;BME280;64229;52.246;21.054;2023-01-15T04:00:37;99634.03;;;3.82;79.77
30897;BME280;64229;52.246;21.054;2023-01-15T04:03:07;99605.88;;;3.88;79.96
30897;BME280;64229;52.246;21.054;2023-01-15T04:05:36;99591.16;;;3.75;79.92
30897;BME280;64229;52.246;21.054;2023-01-15T04:08:02;99590.59;;;3.61;80.32
30897;BME280;64229;52.246;21.054;2023-01-15T04:10:28;99604.47;;;3.68;80.65
30897;BME280;64229;52.246;21.054;2023-01-15T04:12:53;99595.28;;;3.71;79.94
30897;BME280;64229;52.246;21.054;2023-01-15T04:15:19;99620.19;;;3.75;80.07
30897;BME280;64229;52.246;21.054;2023-01-15T04:17:44;99586.81;;;3.69;80.22
30897;BME280;64229;52.246;21.054;2023-01-15T04:20:11;99596.97;;;3.77;80.06
30897;BME280;64229;52.246;21.054;2023-01-15T04:22:36;99594.47;;;3.70;80.48
30897;BME280;64229;52.246;21.054;2023-01-15T04:25:03;99583.00;;;3.76;80.23
30897;BME280;64229;52.246;21.054;2023-01-15T04:27:29;99588.75;;;3.73;79.73
30897;BME280;64229;52.246;21.054;2023-01-15T04:29:54;99576.66;;;3.77;79.82
30897;BME280;64229;52.246;21.054;2023-01-15T04:32:19;99567.47;;;3.80;79.34
30897;BME280;64229;52.246;21.054;2023-01-15T04:34:45;99551.72;;;3.85;78.98
30897;BME280;64229;52.246;21.054;2023-01-15T04:37:11;99530.28;;;3.82;78.93
30897;BME280;64229;52.246;21.054;2023-01-15T04:39:37;99537.88;;;3.78;79.43
30897;BME280;64229;52.246;21.054;2023-01-15T04:42:02;99544.75;;;3.79;79.54
30897;BME280;64229;52.246;21.054;2023-01-15T04:44:46;99521.63;;;3.69;79.33
30897;BME280;64229;52.246;21.054;2023-01-15T04:47:12;99525.41;;;3.73;79.20
30897;BME280;64229;52.246;21.054;2023-01-15T04:49:37;99533.94;;;3.81;79.90
30897;BME280;64229;52.246;21.054;2023-01-15T04:52:03;99525.50;;;3.95;79.01
30897;BME280;64229;52.246;21.054;2023-01-15T04:54:29;99511.88;;;3.87;79.15
30897;BME280;64229;52.246;21.054;2023-01-15T04:56:54;99510.19;;;3.81;79.10
30897;BME280;64229;52.246;21.054;2023-01-15T04:59:23;99514.13;;;3.78;79.58
30897;BME280;64229;52.246;21.054;2023-01-15T05:01:49;99513.88;;;3.80;79.45
30897;BME280;64229;52.246;21.054;2023-01-15T05:04:14;99507.50;;;3.75;79.28
30897;BME280;64229;52.246;21.054;2023-01-15T05:06:40;99511.16;;;3.74;80.04
30897;BME280;64229;52.246;21.054;2023-01-15T05:09:05;99503.56;;;3.78;79.09
30897;BME280;64229;52.246;21.054;2023-01-15T05:11:34;99495.16;;;3.81;78.42
30897;BME280;64229;52.246;21.054;2023-01-15T05:14:00;99498.84;;;3.80;78.66
30897;BME280;64229;52.246;21.054;2023-01-15T05:16:28;99496.38;;;3.73;79.33
30897;BME280;64229;52.246;21.054;2023-01-15T05:18:58;99494.59;;;3.79;79.38
30897;BME280;64229;52.246;21.054;2023-01-15T05:21:32;99502.63;;;3.84;78.47
30897;BME280;64229;52.246;21.054;2023-01-15T05:23:59;99489.31;;;3.79;78.80
30897;BME280;64229;52.246;21.054;2023-01-15T05:26:25;99489.19;;;3.86;79.12
30897;BME280;64229;52.246;21.054;2023-01-15T05:28:56;99479.03;;;3.94;78.09
30897;BME280;64229;52.246;21.054;2023-01-15T05:31:22;99472.94;;;3.94;77.99
30897;BME280;64229;52.246;21.054;2023-01-15T05:33:48;99490.84;;;3.92;77.58
30897;BME280;64229;52.246;21.054;2023-01-15T05:36:20;99483.06;;;4.02;77.78
30897;BME280;64229;52.246;21.054;2023-01-15T05:38:45;99494.44;;;4.02;77.60
30897;BME280;64229;52.246;21.054;2023-01-15T05:41:16;99479.78;;;4.12;77.27
30897;BME280;64229;52.246;21.054;2023-01-15T05:44:07;99474.41;;;4.23;76.39
30897;BME280;64229;52.246;21.054;2023-01-15T05:46:33;99477.44;;;4.32;75.84
30897;BME280;64229;52.246;21.054;2023-01-15T05:49:07;99492.09;;;4.23;76.00
30897;BME280;64229;52.246;21.054;2023-01-15T05:51:34;99469.94;;;4.24;75.71
30897;BME280;64229;52.246;21.054;2023-01-15T05:54:00;99480.34;;;4.30;75.69
30897;BME280;64229;52.246;21.054;2023-01-15T05:56:26;99480.97;;;4.38;75.49
30897;BME280;64229;52.246;21.054;2023-01-15T05:58:52;99480.72;;;4.39;74.97
30897;BME280;64229;52.246;21.054;2023-01-15T06:01:18;99465.41;;;4.41;75.11
30897;BME280;64229;52.246;21.054;2023-01-15T06:03:43;99479.28;;;4.31;74.89
30897;BME280;64229;52.246;21.054;2023-01-15T06:06:13;99472.78;;;4.39;74.93
30897;BME280;64229;52.246;21.054;2023-01-15T06:08:39;99440.75;;;4.35;75.16
30897;BME280;64229;52.246;21.054;2023-01-15T06:11:05;99461.06;;;4.52;74.41
30897;BME280;64229;52.246;21.054;2023-01-15T06:13:31;99456.31;;;4.54;74.99
30897;BME280;64229;52.246;21.054;2023-01-15T06:15:58;99458.47;;;4.57;74.62
30897;BME280;64229;52.246;21.054;2023-01-15T06:18:24;99456.41;;;4.59;74.80
30897;BME280;64229;52.246;21.054;2023-01-15T06:20:49;99448.81;;;4.46;75.83
30897;BME280;64229;52.246;21.054;2023-01-15T06:23:16;99437.66;;;4.39;76.66
30897;BME280;64229;52.246;21.054;2023-01-15T06:25:41;99435.47;;;4.35;77.36
30897;BME280;64229;52.246;21.054;2023-01-15T06:28:07;99430.81;;;4.43;76.71
30897;BME280;64229;52.246;21.054;2023-01-15T06:30:33;99418.16;;;4.45;76.49
30897;BME280;64229;52.246;21.054;2023-01-15T06:32:59;99422.72;;;4.49;76.03
30897;BME280;64229;52.246;21.054;2023-01-15T06:35:25;99421.97;;;4.54;75.55
30897;BME280;64229;52.246;21.054;2023-01-15T06:37:51;99421.25;;;4.58;75.30
30897;BME280;64229;52.246;21.054;2023-01-15T06:40:16;99435.84;;;4.66;75.03
30897;BME280;64229;52.246;21.054;2023-01-15T06:42:42;99429.22;;;4.63;74.87
30897;BME280;64229;52.246;21.054;2023-01-15T06:45:28;99439.25;;;4.61;75.11
30897;BME280;64229;52.246;21.054;2023-01-15T06:48:16;99446.13;;;4.62;75.31
30897;BME280;64229;52.246;21.054;2023-01-15T06:50:41;99445.22;;;4.74;74.52
30897;BME280;64229;52.246;21.054;2023-01-15T06:53:06;99430.16;;;4.74;74.64
30897;BME280;64229;52.246;21.054;2023-01-15T06:55:32;99423.00;;;4.75;75.19
30897;BME280;64229;52.246;21.054;2023-01-15T06:57:57;99411.78;;;4.62;76.19
30897;BME280;64229;52.246;21.054;2023-01-15T07:00:23;99411.22;;;4.39;77.41
30897;BME280;64229;52.246;21.054;2023-01-15T07:02:48;99418.09;;;4.40;79.07
30897;BME280;64229;52.246;21.054;2023-01-15T07:05:14;99409.56;;;4.32;79.20
30897;BME280;64229;52.246;21.054;2023-01-15T07:07:39;99405.56;;;4.30;80.38
30897;BME280;64229;52.246;21.054;2023-01-15T07:10:05;99407.41;;;4.29;81.27
30897;BME280;64229;52.246;21.054;2023-01-15T07:12:33;99404.34;;;4.16;81.87
30897;BME280;64229;52.246;21.054;2023-01-15T07:14:59;99399.28;;;4.14;83.65
30897;BME280;64229;52.246;21.054;2023-01-15T07:17:24;99408.63;;;4.22;83.90
30897;BME280;64229;52.246;21.054;2023-01-15T07:19:50;99405.81;;;4.28;84.78
30897;BME280;64229;52.246;21.054;2023-01-15T07:22:15;99408.81;;;4.15;85.67
30897;BME280;64229;52.246;21.054;2023-01-15T07:24:40;99409.84;;;4.14;85.81
30897;BME280;64229;52.246;21.054;2023-01-15T07:27:06;99409.53;;;4.11;86.16
30897;BME280;64229;52.246;21.054;2023-01-15T07:29:31;99402.50;;;3.99;86.78
30897;BME280;64229;52.246;21.054;2023-01-15T07:31:57;99399.22;;;3.92;87.63
30897;BME280;64229;52.246;21.054;2023-01-15T07:34:22;99394.41;;;3.84;87.55
30897;BME280;64229;52.246;21.054;2023-01-15T07:36:48;99388.22;;;3.78;87.72
30897;BME280;64229;52.246;21.054;2023-01-15T07:39:13;99384.16;;;3.71;87.73
30897;BME280;64229;52.246;21.054;2023-01-15T07:41:39;99380.69;;;3.87;88.58
30897;BME280;64229;52.246;21.054;2023-01-15T07:44:23;99384.63;;;3.85;88.75
30897;BME280;64229;52.246;21.054;2023-01-15T07:47:28;99374.31;;;3.83;88.78
30897;BME280;64229;52.246;21.054;2023-01-15T07:50:19;99371.97;;;3.87;88.80
30897;BME280;64229;52.246;21.054;2023-01-15T07:52:45;99369.72;;;3.95;88.40
30897;BME280;64229;52.246;21.054;2023-01-15T07:55:11;99368.69;;;3.96;88.17
30897;BME280;64229;52.246;21.054;2023-01-15T07:57:38;99375.06;;;4.00;88.22
30897;BME280;64229;52.246;21.054;2023-01-15T08:00:05;99370.09;;;4.04;88.32
30897;BME280;64229;52.246;21.054;2023-01-15T08:02:31;99375.19;;;4.11;88.98
30897;BME280;64229;52.246;21.054;2023-01-15T08:04:57;99375.09;;;4.22;88.58
30897;BME280;64229;52.246;21.054;2023-01-15T08:07:22;99370.84;;;4.21;88.03
30897;BME280;64229;52.246;21.054;2023-01-15T08:09:48;99376.69;;;4.23;87.95
30897;BME280;64229;52.246;21.054;2023-01-15T08:12:13;99374.78;;;4.19;88.03
30897;BME280;64229;52.246;21.054;2023-01-15T08:14:57;99383.00;;;4.22;88.51
30897;BME280;64229;52.246;21.054;2023-01-15T08:17:40;99376.81;;;4.33;88.16
30897;BME280;64229;52.246;21.054;2023-01-15T08:20:15;99372.56;;;4.32;88.05
30897;BME280;64229;52.246;21.054;2023-01-15T08:22:40;99373.63;;;4.31;88.51
30897;BME280;64229;52.246;21.054;2023-01-15T08:25:07;99369.69;;;4.34;88.11
30897;BME280;64229;52.246;21.054;2023-01-15T08:27:35;99374.16;;;4.33;88.43
30897;BME280;64229;52.246;21.054;2023-01-15T08:30:00;99373.75;;;4.42;88.15
30897;BME280;64229;52.246;21.054;2023-01-15T08:32:26;99368.81;;;4.50;88.21
30897;BME280;64229;52.246;21.054;2023-01-15T08:34:51;99368.06;;;4.55;88.29
30897;BME280;64229;52.246;21.054;2023-01-15T08:37:17;99355.66;;;4.55;89.03
30897;BME280;64229;52.246;21.054;2023-01-15T08:39:42;99359.91;;;4.56;88.42
30897;BME280;64229;52.246;21.054;2023-01-15T08:42:08;99359.34;;;4.54;88.06
30897;BME280;64229;52.246;21.054;2023-01-15T08:44:33;99348.88;;;4.64;88.28
30897;BME280;64229;52.246;21.054;2023-01-15T08:46:59;99352.66;;;4.69;88.10
30897;BME280;64229;52.246;21.054;2023-01-15T08:49:24;99350.84;;;4.74;87.80
30897;BME280;64229;52.246;21.054;2023-01-15T08:51:49;99355.97;;;4.59;88.03
30897;BME280;64229;52.246;21.054;2023-01-15T08:54:20;99346.22;;;4.59;88.24
30897;BME280;64229;52.246;21.054;2023-01-15T08:56:46;99354.53;;;4.73;88.47
30897;BME280;64229;52.246;21.054;2023-01-15T08:59:12;99348.03;;;4.86;88.23
30897;BME280;64229;52.246;21.054;2023-01-15T09:01:38;99330.72;;;4.68;88.02
30897;BME280;64229;52.246;21.054;2023-01-15T09:04:05;99343.19;;;4.78;88.56
30897;BME280;64229;52.246;21.054;2023-01-15T09:06:31;99353.47;;;4.74;88.28
30897;BME280;64229;52.246;21.054;2023-01-15T09:08:58;99334.38;;;4.67;88.16
30897;BME280;64229;52.246;21.054;2023-01-15T09:11:24;99339.13;;;4.65;89.42
30897;BME280;64229;52.246;21.054;2023-01-15T09:13:49;99347.91;;;4.71;90.04
30897;BME280;64229;52.246;21.054;2023-01-15T09:16:16;99340.81;;;4.76;90.10
30897;BME280;64229;52.246;21.054;2023-01-15T09:18:42;99341.34;;;4.78;90.08
30897;BME280;64229;52.246;21.054;2023-01-15T09:21:08;99343.47;;;4.76;90.18
30897;BME280;64229;52.246;21.054;2023-01-15T09:23:34;99345.03;;;4.77;90.30
30897;BME280;64229;52.246;21.054;2023-01-15T09:26:01;99328.59;;;4.70;90.44
30897;BME280;64229;52.246;21.054;2023-01-15T09:28:29;99338.84;;;4.67;91.17
30897;BME280;64229;52.246;21.054;2023-01-15T09:30:55;99321.47;;;4.71;91.23
30897;BME280;64229;52.246;21.054;2023-01-15T09:33:21;99319.88;;;4.70;91.91
30897;BME280;64229;52.246;21.054;2023-01-15T09:35:46;99333.56;;;4.67;92.53
30897;BME280;64229;52.246;21.054;2023-01-15T09:38:16;99322.78;;;4.68;92.17
30897;BME280;64229;52.246;21.054;2023-01-15T09:40:55;99329.84;;;4.62;92.46
30897;BME280;64229;52.246;21.054;2023-01-15T09:46:18;99318.66;;;4.55;92.77
30897;BME280;64229;52.246;21.054;2023-01-15T09:49:12;99317.03;;;4.49;93.34
30897;BME280;64229;52.246;21.054;2023-01-15T09:51:42;99318.91;;;4.54;93.78
30897;BME280;64229;52.246;21.054;2023-01-15T09:54:32;99317.63;;;4.56;95.67
30897;BME280;64229;52.246;21.054;2023-01-15T09:57:10;99310.28;;;4.63;96.44
30897;BME280;64229;52.246;21.054;2023-01-15T09:59:39;99304.03;;;4.70;94.51
30897;BME280;64229;52.246;21.054;2023-01-15T10:02:34;99307.91;;;4.62;94.89
30897;BME280;64229;52.246;21.054;2023-01-15T10:05:10;99299.78;;;4.69;94.53
30897;BME280;64229;52.246;21.054;2023-01-15T10:10:40;99287.16;;;4.49;95.21
30897;BME280;64229;52.246;21.054;2023-01-15T10:16:21;99288.91;;;4.65;95.84
30897;BME280;64229;52.246;21.054;2023-01-15T10:18:46;99282.63;;;4.71;96.03
30897;BME280;64229;52.246;21.054;2023-01-15T10:24:06;99296.03;;;4.64;97.36
30897;BME280;64229;52.246;21.054;2023-01-15T10:26:50;99275.44;;;4.67;97.12
30897;BME280;64229;52.246;21.054;2023-01-15T10:31:53;99285.81;;;4.73;97.30
30897;BME280;64229;52.246;21.054;2023-01-15T10:34:30;99272.41;;;4.80;97.20
30897;BME280;64229;52.246;21.054;2023-01-15T10:37:22;99271.28;;;4.76;96.88
30897;BME280;64229;52.246;21.054;2023-01-15T10:45:19;99260.97;;;4.74;97.62
30897;BME280;64229;52.246;21.054;2023-01-15T10:47:52;99257.59;;;4.79;98.29
30897;BME280;64229;52.246;21.054;2023-01-15T10:50:25;99256.31;;;4.86;97.96
30897;BME280;64229;52.246;21.054;2023-01-15T10:56:00;99247.22;;;4.72;98.59
30897;BME280;64229;52.246;21.054;2023-01-15T10:58:49;99252.50;;;4.72;99.00
30897;BME280;64229;52.246;21.054;2023-01-15T11:01:18;99253.03;;;4.74;99.16
30897;BME280;64229;52.246;21.054;2023-01-15T11:03:48;99237.97;;;4.75;99.43
30897;BME280;64229;52.246;21.054;2023-01-15T11:06:21;99248.03;;;4.78;100.00
30897;BME280;64229;52.246;21.054;2023-01-15T11:08:52;99248.38;;;4.86;99.63
30897;BME280;64229;52.246;21.054;2023-01-15T11:11:30;99225.28;;;4.77;99.39
30897;BME280;64229;52.246;21.054;2023-01-15T11:14:39;99239.63;;;4.81;100.00
30897;BME280;64229;52.246;21.054;2023-01-15T11:17:28;99232.16;;;4.78;100.00
30897;BME280;64229;52.246;21.054;2023-01-15T11:20:43;99232.75;;;4.80;100.00
30897;BME280;64229;52.246;21.054;2023-01-15T11:23:17;99226.31;;;4.71;100.00
30897;BME280;64229;52.246;21.054;2023-01-15T11:25:51;99222.81;;;4.65;100.00
30897;BME280;64229;52.246;21.054;2023-01-15T11:28:17;99232.94;;;4.73;100.00
30897;BME280;64229;52.246;21.054;2023-01-15T11:30:54;99226.81;;;4.68;100.00
30897;BME280;64229;52.246;21.054;2023-01-15T11:33:24;99232.25;;;4.56;100.00
30897;BME280;64229;52.246;21.054;2023-01-15T11:35:56;99225.88;;;4.52;100.00
30897;BME280;64229;52.246;21.054;2023-01-15T11:38:27;99225.69;;;4.58;100.00
30897;BME280;64229;52.246;21.054;2023-01-15T11:40:59;99218.59;;;4.64;100.00
30897;BME280;64229;52.246;21.054;2023-01-15T11:43:27;99222.63;;;4.72;100.00
30897;BME280;64229;52.246;21.054;2023-01-15T11:49:10;99219.72;;;4.73;100.00
30897;BME280;64229;52.246;21.054;2023-01-15T11:51:55;99221.38;;;4.79;100.00
30897;BME280;64229;52.246;21.054;2023-01-15T11:54:23;99219.75;;;4.78;100.00
30897;BME280;64229;52.246;21.054;2023-01-15T11:56:49;99207.84;;;4.76;100.00
30897;BME280;64229;52.246;21.054;2023-01-15T11:59:17;99215.50;;;4.72;100.00
30897;BME280;64229;52.246;21.054;2023-01-15T12:01:53;99193.50;;;4.67;100.00
30897;BME280;64229;52.246;21.054;2023-01-15T12:06:57;99206.00;;;4.76;100.00
30897;BME280;64229;52.246;21.054;2023-01-15T12:20:05;99196.03;;;4.88;100.00
30897;BME280;64229;52.246;21.054;2023-01-15T12:22:52;99192.25;;;4.74;100.00
30897;BME280;64229;52.246;21.054;2023-01-15T12:25:39;99193.13;;;4.53;100.00
30897;BME280;64229;52.246;21.054;2023-01-15T12:36:31;99205.88;;;4.93;100.00
30897;BME280;64229;52.246;21.054;2023-01-15T12:41:40;99198.44;;;4.90;100.00
30897;BME280;64229;52.246;21.054;2023-01-15T12:47:23;99209.09;;;5.00;100.00
30897;BME280;64229;52.246;21.054;2023-01-15T12:52:38;99204.63;;;5.06;99.80
30897;BME280;64229;52.246;21.054;2023-01-15T12:55:20;99218.56;;;4.96;100.00
30897;BME280;64229;52.246;21.054;2023-01-15T12:57:53;99210.44;;;5.03;100.00
30897;BME280;64229;52.246;21.054;2023-01-15T13:00:38;99197.75;;;5.10;100.00
30897;BME280;64229;52.246;21.054;2023-01-15T13:05:45;99201.44;;;5.04;100.00
30897;BME280;64229;52.246;21.054;2023-01-15T13:08:26;99208.66;;;5.13;100.00
30897;BME280;64229;52.246;21.054;2023-01-15T13:10:53;99215.47;;;5.09;99.75
30897;BME280;64229;52.246;21.054;2023-01-15T13:13:24;99210.19;;;5.09;99.77
30897;BME280;64229;52.246;21.054;2023-01-15T13:15:56;99206.75;;;5.09;99.67
30897;BME280;64229;52.246;21.054;2023-01-15T13:18:40;99216.59;;;5.13;99.26
30897;BME280;64229;52.246;21.054;2023-01-15T13:21:14;99219.56;;;5.27;99.30
30897;BME280;64229;52.246;21.054;2023-01-15T13:37:34;99205.28;;;5.28;97.80
30897;BME280;64229;52.246;21.054;2023-01-15T13:42:45;99225.19;;;5.36;96.41
30897;BME280;64229;52.246;21.054;2023-01-15T13:47:37;99223.13;;;5.48;96.59
30897;BME280;64229;52.246;21.054;2023-01-15T13:50:22;99224.25;;;5.57;96.18
30897;BME280;64229;52.246;21.054;2023-01-15T13:53:01;99211.28;;;5.56;94.81
30897;BME280;64229;52.246;21.054;2023-01-15T13:55:33;99219.22;;;5.61;95.31
30897;BME280;64229;52.246;21.054;2023-01-15T13:58:00;99220.28;;;5.60;95.04
30897;BME280;64229;52.246;21.054;2023-01-15T14:00:35;99216.78;;;5.44;95.26
30897;BME280;64229;52.246;21.054;2023-01-15T14:03:23;99227.63;;;5.47;95.54
30897;BME280;64229;52.246;21.054;2023-01-15T14:06:06;99232.44;;;5.56;94.87
30897;BME280;64229;52.246;21.054;2023-01-15T14:08:50;99226.91;;;5.62;94.98
30897;BME280;64229;52.246;21.054;2023-01-15T14:11:36;99237.47;;;5.62;94.20
30897;BME280;64229;52.246;21.054;2023-01-15T14:22:48;99241.19;;;5.61;93.69
30897;BME280;64229;52.246;21.054;2023-01-15T14:33:24;99252.13;;;5.80;92.97
30897;BME280;64229;52.246;21.054;2023-01-15T14:35:53;99254.25;;;5.78;93.30
30897;BME280;64229;52.246;21.054;2023-01-15T14:38:23;99261.16;;;5.84;93.24
30897;BME280;64229;52.246;21.054;2023-01-15T14:40:56;99262.81;;;5.95;91.47
30897;BME280;64229;52.246;21.054;2023-01-15T14:43:26;99253.50;;;5.88;92.28
30897;BME280;64229;52.246;21.054;2023-01-15T14:45:52;99251.16;;;5.91;90.96
30897;BME280;64229;52.246;21.054;2023-01-15T14:50:52;99255.56;;;5.75;91.72
30897;BME280;64229;52.246;21.054;2023-01-15T14:53:36;99249.22;;;5.81;92.52
30897;BME280;64229;52.246;21.054;2023-01-15T15:01:57;99239.81;;;5.96;90.85
30897;BME280;64229;52.246;21.054;2023-01-15T15:06:57;99233.75;;;6.16;88.36
30897;BME280;64229;52.246;21.054;2023-01-15T15:17:39;99214.97;;;6.37;85.04
30897;BME280;64229;52.246;21.054;2023-01-15T15:22:47;99224.50;;;6.33;86.07
30897;BME280;64229;52.246;21.054;2023-01-15T15:25:22;99218.44;;;6.48;83.97
30897;BME280;64229;52.246;21.054;2023-01-15T15:28:00;99224.28;;;6.55;83.54
30897;BME280;64229;52.246;21.054;2023-01-15T15:30:26;99222.94;;;6.48;84.05
30897;BME280;64229;52.246;21.054;2023-01-15T15:32:54;99222.16;;;6.42;84.05
30897;BME280;64229;52.246;21.054;2023-01-15T15:35:24;99210.22;;;6.45;84.19
30897;BME280;64229;52.246;21.054;2023-01-15T15:37:51;99220.31;;;6.53;83.72
30897;BME280;64229;52.246;21.054;2023-01-15T15:40:19;99223.22;;;6.46;83.74